首页
METAR-TAF:

METAR-TAF

机场 :

維珍尼亞海灘, 弗吉尼亚州, 美国

纬度: 36-49-16N, 经度: 076-01-42W, 海拔: 6米

当前天气观测

该预报发布于1小时和6分钟前的19:56 UTC
风速11节,风向
温度 9°C
湿度 87%
气压 1014 hPa
能見度: 16.1公里
阴天层高于1200英尺

METAR: KNTU 171956Z 35011KT 10SM OVC012 09/07 A2995 RMK AO2 SLP144 T00940072

时间: 16:02 (21:02 UTC)

预报

预报有效从17日的 15点(UTC)到 18日的 15点(UTC)
风速18节,风向北转东北,有时为30节阵风
能见度10公里或以上
多云层高于1500英尺
阴天层高于3500英尺
附近有阵雨
短暂存在
从 17日的 15点(UTC)到 17日的 20点(UTC)
能見度: 8000
小雨, 轻雾
成为
从 17日的 17点(UTC)到 17日的 19点(UTC)
风速20节,风向北转东北,有时为32节阵风
能见度10公里或以上
阴天层高于1000英尺
附近有阵雨
短暂存在
从 17日的 23点(UTC)到 18日的 04点(UTC)
能見度: 6000
从 18日的 0500点(UTC)
能见度10公里或以上
多云层高于1000英尺
阴天层高于3000英尺

TAF: KNTU 1715/1815 03018G30KT 9999 VCSH BKN015 OVC035 530009 QNH2997INS TEMPO 1715/1720 8000 -RA BR BECMG 1717/1719 03020G32KT 9999 VCSH OVC010 530009 QNH2985INS TEMPO 1723/1804 6000 RA FM180500 35015GG23KT 9999 BKN010 OVC030 500000 QNH2970INS T13/1715Z T10/1812Z FN00210

超过4000个机场的气象观测和天气预报(METAR&TAF报告)。

可查询的气象台以黄色和红色小点在地图上表示。

将鼠标移到小点上方,可查看气象台名称。

然后点击查看天气观测和预报。

如需切换地图:点击带黑十字的绿色按钮放大地图;点击带横线的绿色按钮缩小地图;或者点击绿色箭头查看邻近地区的地图。


METAR-TAF: